createdAt,value
2018-12-15T10:18:29.565Z,2.70
2018-12-15T10:23:38.958Z,2.60
2018-12-15T10:28:48.397Z,2.70
2018-12-15T10:33:57.770Z,2.20
2018-12-15T10:39:08.891Z,2.50
2018-12-15T10:44:18.446Z,2.70
2018-12-15T10:49:30.642Z,2.70
2018-12-15T10:54:39.359Z,2.50
2018-12-15T10:59:48.932Z,2.40
2018-12-15T11:04:58.450Z,2.30
2018-12-15T11:10:07.930Z,2.50
2018-12-15T11:15:17.446Z,2.70
2018-12-15T11:20:27.118Z,2.20
2018-12-15T11:25:36.648Z,2.20
2018-12-15T11:30:46.217Z,2.30
2018-12-15T11:35:55.732Z,2.50
2018-12-15T11:41:05.766Z,2.60
2018-12-15T11:46:15.227Z,2.00
2018-12-15T11:51:24.598Z,1.70
2018-12-15T11:56:34.020Z,1.90
2018-12-15T12:01:43.395Z,2.00
2018-12-15T12:06:53.003Z,2.40
2018-12-15T12:12:02.409Z,2.10
2018-12-15T12:17:11.798Z,2.00
2018-12-15T12:22:21.126Z,2.10
2018-12-15T12:27:30.601Z,2.00
2018-12-15T12:32:40.070Z,2.10
2018-12-15T12:37:49.788Z,2.40
2018-12-15T12:42:59.334Z,2.00
2018-12-15T12:48:08.741Z,2.10
2018-12-15T12:53:18.150Z,2.20
2018-12-15T12:58:27.670Z,2.10
2018-12-15T13:03:37.210Z,2.10
2018-12-15T13:08:46.620Z,1.90
2018-12-15T13:13:56.109Z,2.30
2018-12-15T13:19:05.490Z,2.00
2018-12-15T13:24:14.892Z,2.00
2018-12-15T13:29:24.378Z,2.10
2018-12-15T13:34:33.907Z,2.20
2018-12-15T13:39:43.338Z,2.30
2018-12-15T13:44:52.696Z,2.40
2018-12-15T13:50:02.046Z,2.20
2018-12-15T13:55:11.434Z,2.00
2018-12-15T14:00:21.055Z,2.10
2018-12-15T14:05:30.470Z,2.30
2018-12-15T14:10:40.062Z,2.20
2018-12-15T14:15:49.649Z,2.20
2018-12-15T14:20:59.268Z,2.20
2018-12-15T14:26:08.779Z,2.20
2018-12-15T14:31:18.248Z,2.20
2018-12-15T14:36:27.741Z,2.20
2018-12-15T14:41:37.139Z,2.00
2018-12-15T14:51:55.817Z,1.90
2018-12-15T15:02:14.495Z,2.00
2018-12-15T15:12:33.245Z,1.90
2018-12-15T15:17:42.742Z,1.80
2018-12-15T15:22:52.264Z,2.00
2018-12-15T15:28:01.750Z,2.00
2018-12-15T15:38:20.366Z,1.40
2018-12-15T15:43:29.727Z,1.40
2018-12-15T15:48:39.066Z,1.40
2018-12-15T15:53:48.456Z,-1.20
2018-12-15T15:58:57.966Z,1.40
2018-12-15T16:04:07.544Z,1.20
2018-12-15T16:09:16.889Z,1.40
2018-12-15T16:14:26.492Z,1.20
2018-12-15T16:19:35.969Z,1.20
2018-12-15T16:24:45.390Z,1.30
2018-12-15T16:29:54.737Z,1.50
2018-12-15T16:35:04.798Z,1.80
2018-12-15T16:40:14.369Z,1.10
2018-12-15T16:45:23.870Z,1.00
2018-12-15T16:50:33.254Z,1.10
2018-12-15T16:55:42.883Z,1.20
2018-12-15T17:00:52.355Z,1.10
2018-12-15T17:06:02.026Z,1.20
2018-12-15T17:11:11.407Z,1.20
2018-12-15T17:16:20.884Z,1.40
2018-12-15T17:21:30.605Z,1.30
2018-12-15T17:26:40.656Z,1.20
2018-12-15T17:31:50.282Z,1.10
2018-12-15T17:36:59.676Z,1.00
2018-12-15T17:42:09.117Z,0.90
2018-12-15T17:47:18.558Z,0.90
2018-12-15T17:52:28.119Z,0.90
2018-12-15T17:57:37.486Z,1.10
2018-12-15T18:02:46.884Z,0.70
2018-12-15T18:13:05.702Z,0.90
2018-12-15T18:18:15.225Z,0.30
2018-12-15T18:23:24.597Z,0.50
2018-12-15T18:28:34.041Z,0.70
2018-12-15T18:33:43.378Z,0.50
2018-12-15T18:38:52.744Z,0.40
2018-12-15T18:44:02.442Z,0.40
2018-12-15T18:49:11.814Z,0.40
2018-12-15T18:54:21.524Z,0.40
2018-12-15T18:59:31.114Z,0.30
2018-12-15T19:04:40.543Z,0.40
2018-12-15T19:09:50.150Z,0.40
2018-12-15T19:14:59.631Z,0.50
2018-12-15T19:25:19.143Z,0.40
2018-12-15T19:30:28.704Z,0.50
2018-12-15T19:35:38.177Z,0.60
2018-12-15T19:40:47.785Z,0.50
2018-12-15T19:45:57.243Z,0.30
2018-12-15T19:51:06.849Z,0.30
2018-12-15T20:06:34.913Z,0.30
2018-12-15T20:16:53.876Z,0.40
2018-12-15T20:22:03.410Z,0.40
2018-12-15T20:27:13.496Z,0.30
2018-12-15T20:32:23.120Z,0.20
2018-12-15T20:37:32.999Z,0.30
2018-12-15T20:47:52.862Z,0.30
2018-12-15T20:53:02.669Z,0.40
2018-12-15T20:58:12.379Z,0.30
2018-12-15T21:03:22.654Z,0.30
2018-12-15T21:08:32.365Z,0.40
2018-12-15T21:29:10.360Z,0.30
2018-12-15T21:34:20.023Z,0.30
2018-12-15T21:39:29.409Z,0.30
2018-12-15T22:00:06.653Z,0.50
2018-12-15T22:10:25.282Z,0.50
2018-12-15T22:15:34.817Z,0.60
2018-12-15T22:25:53.729Z,0.60
2018-12-15T22:41:21.610Z,0.60
2018-12-15T22:46:31.014Z,0.70
2018-12-15T22:51:40.510Z,0.60
2018-12-15T22:56:50.010Z,0.60
2018-12-15T23:01:59.404Z,0.70
2018-12-15T23:07:08.754Z,0.90
2018-12-15T23:12:18.146Z,0.80
2018-12-15T23:17:27.718Z,0.60
2018-12-15T23:27:46.353Z,0.80
2018-12-15T23:32:55.698Z,0.90
2018-12-15T23:38:05.226Z,0.80
2018-12-15T23:48:24.572Z,0.80
2018-12-15T23:58:43.377Z,0.90
